CheckWX is a tool to help pilots better visualize weather data.  It is not intended as a substitute for an official pre-flight weather briefing.

14:58:24 UTC

OJAM METAR
Amman-Marka International Airport
Amman, Jordan
Current

58 mins ago

OJAM 071400Z 31010KT 5000 HZ SCT030TCU FEW040 13/04 Q1018 NOSIG
Observed
Dec-7 @ 14:00 UTC
Wind
  • 310° at 10 KTS
Visibility
5,000 meters
Flight Rules
MVFR
Conditions
Haze
Cloud Levels
  • Scattered at 3,000' AGL
  • Few at 4,000' AGL
Temperature
13°C / 55°F
Dewpoint
C / 39°F
Humidity
55%
Altimeter
30.06" Hg
Pressure
1017.92 hPa
Previous

2 hours ago

OJAM 071300Z 30015KT 6000 SCT030TCU SCT040 13/05 Q1018 NOSIG
Observed
Dec-7 @ 13:00 UTC
Wind
  • 300° at 15 KTS
Visibility
6,000 meters
Flight Rules
MVFR
Cloud Levels
  • Scattered at 3,000' AGL
  • Scattered at 4,000' AGL
Temperature
13°C / 55°F
Dewpoint
C / 41°F
Humidity
59%
Altimeter
30.06" Hg
Pressure
1017.92 hPa
Previous

3 hours ago

OJAM 071200Z 30015KT 6000 SCT030TCU SCT080 14/03 Q1018 NOSIG
Observed
Dec-7 @ 12:00 UTC
Wind
  • 300° at 15 KTS
Visibility
6,000 meters
Flight Rules
MVFR
Cloud Levels
  • Scattered at 3,000' AGL
  • Scattered at 8,000' AGL
Temperature
14°C / 57°F
Dewpoint
C / 37°F
Humidity
48%
Altimeter
30.06" Hg
Pressure
1017.92 hPa